sensor_id;sensor_type;location;lat;lon;timestamp;P1;durP1;ratioP1;P2;durP2;ratioP2
68212;SDS011;55035;47.792;8.724;2022-12-29T00:00:09;16.17;;;7.20;;
68212;SDS011;55035;47.792;8.724;2022-12-29T00:02:40;17.58;;;6.68;;
68212;SDS011;55035;47.792;8.724;2022-12-29T00:05:07;16.75;;;6.85;;
68212;SDS011;55035;47.792;8.724;2022-12-29T00:07:33;15.30;;;6.75;;
68212;SDS011;55035;47.792;8.724;2022-12-29T00:10:00;16.00;;;6.53;;
68212;SDS011;55035;47.792;8.724;2022-12-29T00:12:27;15.57;;;5.97;;
68212;SDS011;55035;47.792;8.724;2022-12-29T00:15:16;16.42;;;6.93;;
68212;SDS011;55035;47.792;8.724;2022-12-29T00:18:01;15.70;;;6.20;;
68212;SDS011;55035;47.792;8.724;2022-12-29T00:20:27;12.43;;;5.57;;
68212;SDS011;55035;47.792;8.724;2022-12-29T00:23:12;16.65;;;6.40;;
68212;SDS011;55035;47.792;8.724;2022-12-29T00:25:56;16.03;;;6.40;;
68212;SDS011;55035;47.792;8.724;2022-12-29T00:28:41;24.95;;;9.63;;
68212;SDS011;55035;47.792;8.724;2022-12-29T00:31:26;16.80;;;6.72;;
68212;SDS011;55035;47.792;8.724;2022-12-29T00:34:11;18.63;;;7.85;;
68212;SDS011;55035;47.792;8.724;2022-12-29T00:36:55;13.85;;;5.90;;
68212;SDS011;55035;47.792;8.724;2022-12-29T00:39:22;14.60;;;5.77;;
68212;SDS011;55035;47.792;8.724;2022-12-29T00:42:07;14.40;;;5.78;;
68212;SDS011;55035;47.792;8.724;2022-12-29T00:44:51;12.98;;;5.50;;
68212;SDS011;55035;47.792;8.724;2022-12-29T00:47:19;17.20;;;6.07;;
68212;SDS011;55035;47.792;8.724;2022-12-29T00:49:46;16.27;;;6.30;;
68212;SDS011;55035;47.792;8.724;2022-12-29T00:52:12;16.37;;;6.37;;
68212;SDS011;55035;47.792;8.724;2022-12-29T00:54:40;23.00;;;7.70;;
68212;SDS011;55035;47.792;8.724;2022-12-29T00:57:07;20.85;;;7.50;;
68212;SDS011;55035;47.792;8.724;2022-12-29T00:59:34;22.73;;;7.05;;
68212;SDS011;55035;47.792;8.724;2022-12-29T01:02:01;17.80;;;7.07;;
68212;SDS011;55035;47.792;8.724;2022-12-29T01:04:29;8.63;;;3.50;;
68212;SDS011;55035;47.792;8.724;2022-12-29T01:06:56;8.57;;;3.30;;
68212;SDS011;55035;47.792;8.724;2022-12-29T01:09:23;7.30;;;2.95;;
68212;SDS011;55035;47.792;8.724;2022-12-29T01:12:07;10.18;;;3.70;;
68212;SDS011;55035;47.792;8.724;2022-12-29T01:14:35;10.20;;;4.00;;
68212;SDS011;55035;47.792;8.724;2022-12-29T01:17:02;13.23;;;4.47;;
68212;SDS011;55035;47.792;8.724;2022-12-29T01:19:30;8.45;;;3.45;;
68212;SDS011;55035;47.792;8.724;2022-12-29T01:21:57;10.65;;;4.22;;
68212;SDS011;55035;47.792;8.724;2022-12-29T01:24:24;8.63;;;3.20;;
68212;SDS011;55035;47.792;8.724;2022-12-29T01:26:51;7.80;;;2.83;;
68212;SDS011;55035;47.792;8.724;2022-12-29T01:29:19;8.43;;;2.83;;
68212;SDS011;55035;47.792;8.724;2022-12-29T01:31:46;7.30;;;2.47;;
68212;SDS011;55035;47.792;8.724;2022-12-29T01:34:14;7.47;;;2.10;;
68212;SDS011;55035;47.792;8.724;2022-12-29T01:36:43;8.07;;;2.67;;
68212;SDS011;55035;47.792;8.724;2022-12-29T01:39:10;7.25;;;2.47;;
68212;SDS011;55035;47.792;8.724;2022-12-29T01:41:37;8.23;;;2.83;;
68212;SDS011;55035;47.792;8.724;2022-12-29T01:46:46;7.10;;;1.95;;
68212;SDS011;55035;47.792;8.724;2022-12-29T01:49:15;6.55;;;1.90;;
68212;SDS011;55035;47.792;8.724;2022-12-29T01:51:45;6.43;;;2.17;;
68212;SDS011;55035;47.792;8.724;2022-12-29T01:54:17;6.72;;;2.20;;
68212;SDS011;55035;47.792;8.724;2022-12-29T01:56:47;6.15;;;2.00;;
68212;SDS011;55035;47.792;8.724;2022-12-29T01:59:15;6.45;;;2.20;;
68212;SDS011;55035;47.792;8.724;2022-12-29T02:01:44;8.93;;;2.20;;
68212;SDS011;55035;47.792;8.724;2022-12-29T02:04:11;6.93;;;2.30;;
68212;SDS011;55035;47.792;8.724;2022-12-29T02:06:41;5.78;;;1.77;;
68212;SDS011;55035;47.792;8.724;2022-12-29T02:09:09;6.15;;;2.20;;
68212;SDS011;55035;47.792;8.724;2022-12-29T02:11:36;6.85;;;2.00;;
68212;SDS011;55035;47.792;8.724;2022-12-29T02:14:07;6.15;;;1.80;;
68212;SDS011;55035;47.792;8.724;2022-12-29T02:16:40;6.03;;;1.80;;
68212;SDS011;55035;47.792;8.724;2022-12-29T02:19:26;7.47;;;1.67;;
68212;SDS011;55035;47.792;8.724;2022-12-29T02:22:00;5.85;;;1.65;;
68212;SDS011;55035;47.792;8.724;2022-12-29T02:24:39;6.30;;;1.88;;
68212;SDS011;55035;47.792;8.724;2022-12-29T02:30:05;5.70;;;1.55;;
68212;SDS011;55035;47.792;8.724;2022-12-29T02:32:37;6.65;;;1.65;;
68212;SDS011;55035;47.792;8.724;2022-12-29T02:35:07;6.38;;;1.65;;
68212;SDS011;55035;47.792;8.724;2022-12-29T02:37:39;6.78;;;1.73;;
68212;SDS011;55035;47.792;8.724;2022-12-29T02:40:11;7.47;;;2.42;;
68212;SDS011;55035;47.792;8.724;2022-12-29T02:42:44;6.82;;;2.40;;
68212;SDS011;55035;47.792;8.724;2022-12-29T02:45:15;6.50;;;2.20;;
68212;SDS011;55035;47.792;8.724;2022-12-29T02:47:46;7.20;;;2.17;;
68212;SDS011;55035;47.792;8.724;2022-12-29T02:50:15;7.57;;;2.55;;
68212;SDS011;55035;47.792;8.724;2022-12-29T02:52:45;6.40;;;2.00;;
68212;SDS011;55035;47.792;8.724;2022-12-29T02:55:13;6.72;;;2.38;;
68212;SDS011;55035;47.792;8.724;2022-12-29T02:57:39;7.63;;;2.20;;
68212;SDS011;55035;47.792;8.724;2022-12-29T03:00:07;9.90;;;2.40;;
68212;SDS011;55035;47.792;8.724;2022-12-29T03:02:49;7.60;;;2.33;;
68212;SDS011;55035;47.792;8.724;2022-12-29T03:05:22;6.43;;;2.00;;
68212;SDS011;55035;47.792;8.724;2022-12-29T03:07:56;7.50;;;2.57;;
68212;SDS011;55035;47.792;8.724;2022-12-29T03:10:30;6.95;;;2.30;;
68212;SDS011;55035;47.792;8.724;2022-12-29T03:13:02;7.68;;;2.15;;
68212;SDS011;55035;47.792;8.724;2022-12-29T03:15:50;8.18;;;2.50;;
68212;SDS011;55035;47.792;8.724;2022-12-29T03:18:34;6.80;;;2.40;;
68212;SDS011;55035;47.792;8.724;2022-12-29T03:21:03;7.13;;;2.00;;
68212;SDS011;55035;47.792;8.724;2022-12-29T03:23:31;5.00;;;1.52;;
68212;SDS011;55035;47.792;8.724;2022-12-29T03:25:59;6.82;;;1.48;;
68212;SDS011;55035;47.792;8.724;2022-12-29T03:28:29;5.63;;;1.48;;
68212;SDS011;55035;47.792;8.724;2022-12-29T03:30:57;6.72;;;1.63;;
68212;SDS011;55035;47.792;8.724;2022-12-29T03:33:27;6.00;;;1.60;;
68212;SDS011;55035;47.792;8.724;2022-12-29T03:36:00;5.70;;;1.65;;
68212;SDS011;55035;47.792;8.724;2022-12-29T03:38:30;7.43;;;2.00;;
68212;SDS011;55035;47.792;8.724;2022-12-29T03:40:59;6.28;;;1.88;;
68212;SDS011;55035;47.792;8.724;2022-12-29T03:43:28;7.63;;;2.10;;
68212;SDS011;55035;47.792;8.724;2022-12-29T03:45:56;7.03;;;2.00;;
68212;SDS011;55035;47.792;8.724;2022-12-29T03:48:23;5.68;;;1.58;;
68212;SDS011;55035;47.792;8.724;2022-12-29T03:50:52;6.50;;;1.88;;
68212;SDS011;55035;47.792;8.724;2022-12-29T03:53:20;6.35;;;1.70;;
68212;SDS011;55035;47.792;8.724;2022-12-29T03:55:47;6.05;;;1.80;;
68212;SDS011;55035;47.792;8.724;2022-12-29T03:58:14;6.97;;;2.20;;
68212;SDS011;55035;47.792;8.724;2022-12-29T04:01:10;6.70;;;1.70;;
68212;SDS011;55035;47.792;8.724;2022-12-29T04:03:39;6.05;;;1.90;;
68212;SDS011;55035;47.792;8.724;2022-12-29T04:06:06;6.47;;;2.10;;
68212;SDS011;55035;47.792;8.724;2022-12-29T04:09:01;9.85;;;3.50;;
68212;SDS011;55035;47.792;8.724;2022-12-29T04:11:34;9.67;;;2.90;;
68212;SDS011;55035;47.792;8.724;2022-12-29T04:14:02;7.70;;;2.60;;
68212;SDS011;55035;47.792;8.724;2022-12-29T04:16:31;6.47;;;2.33;;
68212;SDS011;55035;47.792;8.724;2022-12-29T04:19:02;6.90;;;1.75;;
68212;SDS011;55035;47.792;8.724;2022-12-29T04:21:29;6.75;;;1.80;;
68212;SDS011;55035;47.792;8.724;2022-12-29T04:23:57;7.10;;;1.63;;
68212;SDS011;55035;47.792;8.724;2022-12-29T04:26:25;6.07;;;1.88;;
68212;SDS011;55035;47.792;8.724;2022-12-29T04:28:58;6.97;;;1.80;;
68212;SDS011;55035;47.792;8.724;2022-12-29T04:31:44;6.18;;;1.52;;
68212;SDS011;55035;47.792;8.724;2022-12-29T04:34:11;6.63;;;1.75;;
68212;SDS011;55035;47.792;8.724;2022-12-29T04:36:37;5.63;;;1.63;;
68212;SDS011;55035;47.792;8.724;2022-12-29T04:39:05;7.05;;;1.65;;
68212;SDS011;55035;47.792;8.724;2022-12-29T04:41:34;6.93;;;2.15;;
68212;SDS011;55035;47.792;8.724;2022-12-29T04:44:01;7.55;;;1.80;;
68212;SDS011;55035;47.792;8.724;2022-12-29T04:46:28;6.32;;;2.13;;
68212;SDS011;55035;47.792;8.724;2022-12-29T04:49:01;9.67;;;2.00;;
68212;SDS011;55035;47.792;8.724;2022-12-29T04:51:59;6.55;;;1.70;;
68212;SDS011;55035;47.792;8.724;2022-12-29T04:54:27;7.68;;;2.90;;
68212;SDS011;55035;47.792;8.724;2022-12-29T04:57:05;7.55;;;2.60;;
68212;SDS011;55035;47.792;8.724;2022-12-29T04:59:32;8.13;;;3.50;;
68212;SDS011;55035;47.792;8.724;2022-12-29T05:01:59;7.93;;;2.90;;
68212;SDS011;55035;47.792;8.724;2022-12-29T05:04:27;9.25;;;3.20;;
68212;SDS011;55035;47.792;8.724;2022-12-29T05:06:54;7.55;;;2.83;;
68212;SDS011;55035;47.792;8.724;2022-12-29T05:09:21;8.20;;;3.30;;
68212;SDS011;55035;47.792;8.724;2022-12-29T05:11:49;7.22;;;2.80;;
68212;SDS011;55035;47.792;8.724;2022-12-29T05:14:17;5.90;;;1.90;;
68212;SDS011;55035;47.792;8.724;2022-12-29T05:16:44;7.45;;;2.30;;
68212;SDS011;55035;47.792;8.724;2022-12-29T05:19:11;8.07;;;2.67;;
68212;SDS011;55035;47.792;8.724;2022-12-29T05:21:38;7.45;;;2.03;;
68212;SDS011;55035;47.792;8.724;2022-12-29T05:24:05;7.75;;;2.15;;
68212;SDS011;55035;47.792;8.724;2022-12-29T05:26:31;5.70;;;1.90;;
68212;SDS011;55035;47.792;8.724;2022-12-29T05:29:28;8.60;;;3.03;;
68212;SDS011;55035;47.792;8.724;2022-12-29T05:31:56;7.20;;;2.67;;
68212;SDS011;55035;47.792;8.724;2022-12-29T05:34:23;5.95;;;2.20;;
68212;SDS011;55035;47.792;8.724;2022-12-29T05:36:50;7.43;;;2.25;;
68212;SDS011;55035;47.792;8.724;2022-12-29T05:39:17;7.20;;;1.80;;
68212;SDS011;55035;47.792;8.724;2022-12-29T05:41:48;5.75;;;1.92;;
68212;SDS011;55035;47.792;8.724;2022-12-29T05:44:26;9.20;;;2.15;;
68212;SDS011;55035;47.792;8.724;2022-12-29T05:47:21;5.70;;;1.75;;
68212;SDS011;55035;47.792;8.724;2022-12-29T05:50:00;4.93;;;1.30;;
68212;SDS011;55035;47.792;8.724;2022-12-29T05:52:50;6.33;;;1.30;;
68212;SDS011;55035;47.792;8.724;2022-12-29T05:55:18;5.75;;;1.60;;
68212;SDS011;55035;47.792;8.724;2022-12-29T05:57:47;5.60;;;1.88;;
68212;SDS011;55035;47.792;8.724;2022-12-29T06:00:15;11.00;;;1.98;;
68212;SDS011;55035;47.792;8.724;2022-12-29T06:02:46;6.90;;;2.20;;
68212;SDS011;55035;47.792;8.724;2022-12-29T06:05:14;8.13;;;1.90;;
68212;SDS011;55035;47.792;8.724;2022-12-29T06:07:42;7.75;;;1.98;;
68212;SDS011;55035;47.792;8.724;2022-12-29T06:10:10;6.00;;;1.88;;
68212;SDS011;55035;47.792;8.724;2022-12-29T06:12:44;7.18;;;1.85;;
68212;SDS011;55035;47.792;8.724;2022-12-29T06:15:11;6.70;;;1.95;;
68212;SDS011;55035;47.792;8.724;2022-12-29T06:17:41;8.43;;;1.83;;
68212;SDS011;55035;47.792;8.724;2022-12-29T06:20:10;5.90;;;1.70;;
68212;SDS011;55035;47.792;8.724;2022-12-29T06:22:37;6.13;;;2.10;;
68212;SDS011;55035;47.792;8.724;2022-12-29T06:25:04;7.32;;;2.45;;
68212;SDS011;55035;47.792;8.724;2022-12-29T06:27:33;9.00;;;2.85;;
68212;SDS011;55035;47.792;8.724;2022-12-29T06:30:00;7.30;;;3.23;;
68212;SDS011;55035;47.792;8.724;2022-12-29T06:32:27;8.27;;;2.70;;
68212;SDS011;55035;47.792;8.724;2022-12-29T06:34:59;7.72;;;3.47;;
68212;SDS011;55035;47.792;8.724;2022-12-29T06:37:28;7.72;;;2.63;;
68212;SDS011;55035;47.792;8.724;2022-12-29T06:39:55;10.18;;;2.97;;
68212;SDS011;55035;47.792;8.724;2022-12-29T06:42:26;8.20;;;3.13;;
68212;SDS011;55035;47.792;8.724;2022-12-29T06:45:31;8.73;;;3.08;;
68212;SDS011;55035;47.792;8.724;2022-12-29T06:47:58;7.63;;;3.10;;
68212;SDS011;55035;47.792;8.724;2022-12-29T06:50:24;8.65;;;2.72;;
68212;SDS011;55035;47.792;8.724;2022-12-29T06:52:53;8.40;;;2.85;;
68212;SDS011;55035;47.792;8.724;2022-12-29T06:55:22;7.40;;;2.57;;
68212;SDS011;55035;47.792;8.724;2022-12-29T06:57:49;7.28;;;2.45;;
68212;SDS011;55035;47.792;8.724;2022-12-29T07:00:16;9.00;;;2.85;;
68212;SDS011;55035;47.792;8.724;2022-12-29T07:02:43;7.95;;;2.83;;
68212;SDS011;55035;47.792;8.724;2022-12-29T07:05:10;22.30;;;8.15;;
68212;SDS011;55035;47.792;8.724;2022-12-29T07:07:39;7.27;;;2.47;;
68212;SDS011;55035;47.792;8.724;2022-12-29T07:10:08;8.35;;;2.50;;
68212;SDS011;55035;47.792;8.724;2022-12-29T07:12:35;9.27;;;2.90;;
68212;SDS011;55035;47.792;8.724;2022-12-29T07:15:02;8.88;;;2.53;;
68212;SDS011;55035;47.792;8.724;2022-12-29T07:17:30;7.45;;;2.90;;
68212;SDS011;55035;47.792;8.724;2022-12-29T07:19:57;9.30;;;3.30;;
68212;SDS011;55035;47.792;8.724;2022-12-29T07:36:52;7.07;;;2.50;;
68212;SDS011;55035;47.792;8.724;2022-12-29T07:39:20;7.03;;;2.78;;
68212;SDS011;55035;47.792;8.724;2022-12-29T07:41:47;8.88;;;2.60;;
68212;SDS011;55035;47.792;8.724;2022-12-29T07:44:17;11.30;;;4.03;;
68212;SDS011;55035;47.792;8.724;2022-12-29T07:46:50;7.40;;;2.40;;
68212;SDS011;55035;47.792;8.724;2022-12-29T07:49:17;7.93;;;2.72;;
68212;SDS011;55035;47.792;8.724;2022-12-29T07:51:44;8.35;;;2.88;;
68212;SDS011;55035;47.792;8.724;2022-12-29T07:54:13;7.97;;;2.40;;
68212;SDS011;55035;47.792;8.724;2022-12-29T07:56:39;7.53;;;2.78;;
68212;SDS011;55035;47.792;8.724;2022-12-29T07:59:06;10.03;;;2.47;;
68212;SDS011;55035;47.792;8.724;2022-12-29T08:01:33;9.05;;;2.40;;
68212;SDS011;55035;47.792;8.724;2022-12-29T08:04:00;8.13;;;2.40;;
68212;SDS011;55035;47.792;8.724;2022-12-29T08:06:27;6.88;;;2.53;;
68212;SDS011;55035;47.792;8.724;2022-12-29T08:08:57;8.88;;;2.88;;
68212;SDS011;55035;47.792;8.724;2022-12-29T08:11:27;9.07;;;2.70;;
68212;SDS011;55035;47.792;8.724;2022-12-29T08:13:55;8.20;;;2.63;;
68212;SDS011;55035;47.792;8.724;2022-12-29T08:16:21;9.35;;;2.88;;
68212;SDS011;55035;47.792;8.724;2022-12-29T08:18:48;7.88;;;2.65;;
68212;SDS011;55035;47.792;8.724;2022-12-29T08:21:15;10.27;;;2.47;;
68212;SDS011;55035;47.792;8.724;2022-12-29T08:23:42;7.13;;;2.50;;
68212;SDS011;55035;47.792;8.724;2022-12-29T08:26:09;8.45;;;2.90;;
68212;SDS011;55035;47.792;8.724;2022-12-29T08:28:37;7.85;;;2.50;;
68212;SDS011;55035;47.792;8.724;2022-12-29T08:31:04;6.20;;;1.92;;
68212;SDS011;55035;47.792;8.724;2022-12-29T08:33:31;7.70;;;2.45;;
68212;SDS011;55035;47.792;8.724;2022-12-29T08:35:59;6.43;;;1.90;;
68212;SDS011;55035;47.792;8.724;2022-12-29T08:38:27;8.32;;;2.28;;
68212;SDS011;55035;47.792;8.724;2022-12-29T08:40:54;7.32;;;2.28;;
68212;SDS011;55035;47.792;8.724;2022-12-29T08:43:21;8.50;;;2.63;;
68212;SDS011;55035;47.792;8.724;2022-12-29T08:45:50;6.40;;;2.35;;
68212;SDS011;55035;47.792;8.724;2022-12-29T08:48:20;6.83;;;2.10;;
68212;SDS011;55035;47.792;8.724;2022-12-29T08:50:47;8.82;;;1.80;;
68212;SDS011;55035;47.792;8.724;2022-12-29T08:53:15;5.55;;;1.67;;
68212;SDS011;55035;47.792;8.724;2022-12-29T08:55:44;6.53;;;1.98;;
68212;SDS011;55035;47.792;8.724;2022-12-29T08:58:11;8.15;;;2.10;;
68212;SDS011;55035;47.792;8.724;2022-12-29T09:00:42;6.33;;;2.30;;
68212;SDS011;55035;47.792;8.724;2022-12-29T09:03:10;6.28;;;1.83;;
68212;SDS011;55035;47.792;8.724;2022-12-29T09:05:37;6.20;;;2.13;;
68212;SDS011;55035;47.792;8.724;2022-12-29T09:08:04;6.63;;;1.88;;
68212;SDS011;55035;47.792;8.724;2022-12-29T09:10:33;6.20;;;2.00;;
68212;SDS011;55035;47.792;8.724;2022-12-29T09:12:59;8.17;;;2.20;;
68212;SDS011;55035;47.792;8.724;2022-12-29T09:15:26;6.80;;;1.73;;
68212;SDS011;55035;47.792;8.724;2022-12-29T09:17:53;7.90;;;2.17;;
68212;SDS011;55035;47.792;8.724;2022-12-29T09:20:22;9.00;;;1.73;;
68212;SDS011;55035;47.792;8.724;2022-12-29T09:22:49;6.18;;;1.85;;
68212;SDS011;55035;47.792;8.724;2022-12-29T09:25:15;5.60;;;1.70;;
68212;SDS011;55035;47.792;8.724;2022-12-29T09:27:42;7.00;;;1.90;;
68212;SDS011;55035;47.792;8.724;2022-12-29T09:30:10;7.30;;;2.10;;
68212;SDS011;55035;47.792;8.724;2022-12-29T09:32:37;6.40;;;1.80;;
68212;SDS011;55035;47.792;8.724;2022-12-29T09:35:04;6.95;;;2.08;;
68212;SDS011;55035;47.792;8.724;2022-12-29T09:37:32;6.60;;;2.07;;
68212;SDS011;55035;47.792;8.724;2022-12-29T09:39:59;7.07;;;2.13;;
68212;SDS011;55035;47.792;8.724;2022-12-29T09:42:27;6.30;;;2.17;;
68212;SDS011;55035;47.792;8.724;2022-12-29T09:45:00;6.53;;;1.42;;
68212;SDS011;55035;47.792;8.724;2022-12-29T09:47:30;6.75;;;1.70;;
68212;SDS011;55035;47.792;8.724;2022-12-29T09:49:58;7.70;;;1.73;;
68212;SDS011;55035;47.792;8.724;2022-12-29T09:52:29;11.00;;;2.00;;
68212;SDS011;55035;47.792;8.724;2022-12-29T09:54:59;6.60;;;1.80;;
68212;SDS011;55035;47.792;8.724;2022-12-29T09:57:29;8.55;;;1.95;;
68212;SDS011;55035;47.792;8.724;2022-12-29T09:59:59;5.25;;;1.42;;
68212;SDS011;55035;47.792;8.724;2022-12-29T10:02:38;6.23;;;1.70;;
68212;SDS011;55035;47.792;8.724;2022-12-29T10:05:15;7.25;;;1.60;;
68212;SDS011;55035;47.792;8.724;2022-12-29T10:07:45;7.25;;;1.92;;
68212;SDS011;55035;47.792;8.724;2022-12-29T10:10:19;6.95;;;1.58;;
68212;SDS011;55035;47.792;8.724;2022-12-29T10:12:52;5.88;;;1.65;;
68212;SDS011;55035;47.792;8.724;2022-12-29T10:15:26;4.03;;;1.07;;
68212;SDS011;55035;47.792;8.724;2022-12-29T10:17:58;5.68;;;1.65;;
68212;SDS011;55035;47.792;8.724;2022-12-29T10:20:31;7.75;;;1.92;;
68212;SDS011;55035;47.792;8.724;2022-12-29T10:25:45;7.07;;;1.30;;
68212;SDS011;55035;47.792;8.724;2022-12-29T10:28:15;5.83;;;1.33;;
68212;SDS011;55035;47.792;8.724;2022-12-29T10:30:44;8.15;;;1.52;;
68212;SDS011;55035;47.792;8.724;2022-12-29T10:33:13;5.97;;;1.67;;
68212;SDS011;55035;47.792;8.724;2022-12-29T10:35:41;5.05;;;0.88;;
68212;SDS011;55035;47.792;8.724;2022-12-29T10:38:11;6.07;;;1.30;;
68212;SDS011;55035;47.792;8.724;2022-12-29T10:40:42;4.33;;;1.20;;
68212;SDS011;55035;47.792;8.724;2022-12-29T10:43:22;5.68;;;1.10;;
68212;SDS011;55035;47.792;8.724;2022-12-29T10:45:51;5.55;;;1.25;;
68212;SDS011;55035;47.792;8.724;2022-12-29T10:48:20;5.90;;;1.52;;
68212;SDS011;55035;47.792;8.724;2022-12-29T10:50:48;5.60;;;1.50;;
68212;SDS011;55035;47.792;8.724;2022-12-29T10:53:17;5.10;;;1.23;;
68212;SDS011;55035;47.792;8.724;2022-12-29T10:55:46;4.88;;;1.10;;
68212;SDS011;55035;47.792;8.724;2022-12-29T10:58:15;7.55;;;1.08;;
68212;SDS011;55035;47.792;8.724;2022-12-29T11:00:43;5.65;;;1.10;;
68212;SDS011;55035;47.792;8.724;2022-12-29T11:03:23;5.25;;;1.10;;
68212;SDS011;55035;47.792;8.724;2022-12-29T11:05:57;4.17;;;1.03;;
68212;SDS011;55035;47.792;8.724;2022-12-29T11:08:30;5.68;;;1.20;;
68212;SDS011;55035;47.792;8.724;2022-12-29T11:10:58;7.28;;;1.67;;
68212;SDS011;55035;47.792;8.724;2022-12-29T11:13:29;5.10;;;1.30;;
68212;SDS011;55035;47.792;8.724;2022-12-29T11:15:56;5.38;;;1.40;;
68212;SDS011;55035;47.792;8.724;2022-12-29T11:18:23;4.97;;;1.40;;
68212;SDS011;55035;47.792;8.724;2022-12-29T11:20:52;5.80;;;1.42;;
68212;SDS011;55035;47.792;8.724;2022-12-29T11:26:11;5.82;;;1.13;;
68212;SDS011;55035;47.792;8.724;2022-12-29T11:28:41;8.50;;;1.33;;
68212;SDS011;55035;47.792;8.724;2022-12-29T11:31:08;4.63;;;1.07;;
68212;SDS011;55035;47.792;8.724;2022-12-29T11:33:37;6.30;;;1.23;;
68212;SDS011;55035;47.792;8.724;2022-12-29T11:36:05;7.28;;;1.75;;
68212;SDS011;55035;47.792;8.724;2022-12-29T11:38:34;4.80;;;1.35;;
68212;SDS011;55035;47.792;8.724;2022-12-29T11:41:01;5.32;;;1.27;;
68212;SDS011;55035;47.792;8.724;2022-12-29T11:43:29;5.73;;;1.20;;
68212;SDS011;55035;47.792;8.724;2022-12-29T11:46:00;5.63;;;1.02;;
68212;SDS011;55035;47.792;8.724;2022-12-29T11:48:29;6.03;;;1.67;;
68212;SDS011;55035;47.792;8.724;2022-12-29T11:50:58;6.15;;;1.15;;
68212;SDS011;55035;47.792;8.724;2022-12-29T11:53:26;5.93;;;1.15;;
68212;SDS011;55035;47.792;8.724;2022-12-29T11:55:54;7.03;;;1.30;;
68212;SDS011;55035;47.792;8.724;2022-12-29T12:00:51;5.50;;;1.55;;
68212;SDS011;55035;47.792;8.724;2022-12-29T12:03:20;5.50;;;1.30;;
68212;SDS011;55035;47.792;8.724;2022-12-29T12:05:50;7.57;;;1.60;;
68212;SDS011;55035;47.792;8.724;2022-12-29T12:08:20;5.27;;;1.30;;
68212;SDS011;55035;47.792;8.724;2022-12-29T12:10:50;6.32;;;1.15;;
68212;SDS011;55035;47.792;8.724;2022-12-29T12:13:20;6.43;;;1.42;;
68212;SDS011;55035;47.792;8.724;2022-12-29T12:15:51;7.82;;;1.17;;
68212;SDS011;55035;47.792;8.724;2022-12-29T12:18:24;7.10;;;1.55;;
68212;SDS011;55035;47.792;8.724;2022-12-29T12:20:53;5.13;;;1.20;;
68212;SDS011;55035;47.792;8.724;2022-12-29T12:23:30;6.93;;;1.20;;
68212;SDS011;55035;47.792;8.724;2022-12-29T12:26:01;5.85;;;1.33;;
68212;SDS011;55035;47.792;8.724;2022-12-29T12:28:36;5.53;;;1.40;;
68212;SDS011;55035;47.792;8.724;2022-12-29T12:31:05;5.25;;;1.20;;
68212;SDS011;55035;47.792;8.724;2022-12-29T12:33:35;5.63;;;1.17;;
68212;SDS011;55035;47.792;8.724;2022-12-29T12:36:08;4.55;;;1.00;;
68212;SDS011;55035;47.792;8.724;2022-12-29T12:38:42;5.50;;;1.10;;
68212;SDS011;55035;47.792;8.724;2022-12-29T12:41:15;5.90;;;0.98;;
68212;SDS011;55035;47.792;8.724;2022-12-29T12:43:45;3.88;;;0.82;;
68212;SDS011;55035;47.792;8.724;2022-12-29T12:49:15;4.43;;;0.65;;
68212;SDS011;55035;47.792;8.724;2022-12-29T12:51:47;5.63;;;0.90;;
68212;SDS011;55035;47.792;8.724;2022-12-29T12:54:22;3.85;;;0.80;;
68212;SDS011;55035;47.792;8.724;2022-12-29T12:56:53;5.05;;;0.77;;
68212;SDS011;55035;47.792;8.724;2022-12-29T12:59:30;4.80;;;0.77;;
68212;SDS011;55035;47.792;8.724;2022-12-29T13:02:00;5.40;;;1.80;;
68212;SDS011;55035;47.792;8.724;2022-12-29T13:04:35;4.30;;;0.85;;
68212;SDS011;55035;47.792;8.724;2022-12-29T13:07:04;4.38;;;0.90;;
68212;SDS011;55035;47.792;8.724;2022-12-29T13:09:37;4.35;;;0.98;;
68212;SDS011;55035;47.792;8.724;2022-12-29T13:12:13;3.87;;;0.60;;
68212;SDS011;55035;47.792;8.724;2022-12-29T13:14:47;4.63;;;1.05;;
68212;SDS011;55035;47.792;8.724;2022-12-29T13:17:17;4.57;;;0.77;;
68212;SDS011;55035;47.792;8.724;2022-12-29T13:19:47;4.15;;;0.73;;
68212;SDS011;55035;47.792;8.724;2022-12-29T13:22:20;3.65;;;0.93;;
68212;SDS011;55035;47.792;8.724;2022-12-29T13:24:51;5.13;;;0.87;;
68212;SDS011;55035;47.792;8.724;2022-12-29T13:27:20;4.75;;;0.85;;
68212;SDS011;55035;47.792;8.724;2022-12-29T13:29:50;4.50;;;0.80;;
68212;SDS011;55035;47.792;8.724;2022-12-29T13:32:26;5.00;;;0.82;;
68212;SDS011;55035;47.792;8.724;2022-12-29T13:35:00;3.40;;;0.75;;
68212;SDS011;55035;47.792;8.724;2022-12-29T13:37:29;3.53;;;0.60;;
68212;SDS011;55035;47.792;8.724;2022-12-29T13:39:59;3.80;;;0.77;;
68212;SDS011;55035;47.792;8.724;2022-12-29T13:42:28;6.18;;;1.08;;
68212;SDS011;55035;47.792;8.724;2022-12-29T13:44:56;4.15;;;0.90;;
68212;SDS011;55035;47.792;8.724;2022-12-29T13:47:25;4.85;;;0.70;;
68212;SDS011;55035;47.792;8.724;2022-12-29T13:49:53;3.70;;;0.70;;
68212;SDS011;55035;47.792;8.724;2022-12-29T13:52:24;3.20;;;0.70;;
68212;SDS011;55035;47.792;8.724;2022-12-29T13:54:56;3.63;;;0.75;;
68212;SDS011;55035;47.792;8.724;2022-12-29T13:57:36;4.07;;;0.70;;
68212;SDS011;55035;47.792;8.724;2022-12-29T14:00:11;6.10;;;1.70;;
68212;SDS011;55035;47.792;8.724;2022-12-29T14:02:42;5.20;;;1.30;;
68212;SDS011;55035;47.792;8.724;2022-12-29T14:05:26;5.68;;;1.35;;
68212;SDS011;55035;47.792;8.724;2022-12-29T14:07:58;5.57;;;1.60;;
68212;SDS011;55035;47.792;8.724;2022-12-29T14:10:27;6.05;;;1.58;;
68212;SDS011;55035;47.792;8.724;2022-12-29T14:12:59;7.07;;;1.80;;
68212;SDS011;55035;47.792;8.724;2022-12-29T14:15:27;6.23;;;1.60;;
68212;SDS011;55035;47.792;8.724;2022-12-29T14:20:47;5.68;;;1.48;;
68212;SDS011;55035;47.792;8.724;2022-12-29T14:23:26;5.80;;;1.60;;
68212;SDS011;55035;47.792;8.724;2022-12-29T14:25:58;7.38;;;2.55;;
68212;SDS011;55035;47.792;8.724;2022-12-29T14:28:25;5.40;;;1.10;;
68212;SDS011;55035;47.792;8.724;2022-12-29T14:30:53;5.15;;;1.20;;
68212;SDS011;55035;47.792;8.724;2022-12-29T14:33:20;5.03;;;1.10;;
68212;SDS011;55035;47.792;8.724;2022-12-29T14:35:48;4.32;;;1.00;;
68212;SDS011;55035;47.792;8.724;2022-12-29T14:38:21;5.65;;;0.88;;
68212;SDS011;55035;47.792;8.724;2022-12-29T14:40:49;4.60;;;1.03;;
68212;SDS011;55035;47.792;8.724;2022-12-29T14:43:21;4.63;;;0.95;;
68212;SDS011;55035;47.792;8.724;2022-12-29T14:45:52;4.47;;;0.98;;
68212;SDS011;55035;47.792;8.724;2022-12-29T14:48:21;6.05;;;0.90;;
68212;SDS011;55035;47.792;8.724;2022-12-29T14:50:48;5.53;;;1.05;;
68212;SDS011;55035;47.792;8.724;2022-12-29T14:55:58;5.45;;;0.95;;
68212;SDS011;55035;47.792;8.724;2022-12-29T14:58:26;5.95;;;1.20;;
68212;SDS011;55035;47.792;8.724;2022-12-29T15:00:54;5.55;;;1.30;;
68212;SDS011;55035;47.792;8.724;2022-12-29T15:03:22;6.10;;;1.50;;
68212;SDS011;55035;47.792;8.724;2022-12-29T15:05:50;5.50;;;0.90;;
68212;SDS011;55035;47.792;8.724;2022-12-29T15:08:19;5.70;;;1.25;;
68212;SDS011;55035;47.792;8.724;2022-12-29T15:10:48;7.30;;;1.48;;
68212;SDS011;55035;47.792;8.724;2022-12-29T15:13:20;4.53;;;1.00;;
68212;SDS011;55035;47.792;8.724;2022-12-29T15:15:49;4.60;;;1.00;;
68212;SDS011;55035;47.792;8.724;2022-12-29T15:18:22;5.47;;;1.13;;
68212;SDS011;55035;47.792;8.724;2022-12-29T15:20:50;7.55;;;1.10;;
68212;SDS011;55035;47.792;8.724;2022-12-29T15:23:17;6.90;;;2.20;;
68212;SDS011;55035;47.792;8.724;2022-12-29T15:25:46;6.78;;;1.80;;
68212;SDS011;55035;47.792;8.724;2022-12-29T15:28:14;5.20;;;1.15;;
68212;SDS011;55035;47.792;8.724;2022-12-29T15:30:51;5.73;;;1.23;;
68212;SDS011;55035;47.792;8.724;2022-12-29T15:33:19;6.80;;;1.60;;
68212;SDS011;55035;47.792;8.724;2022-12-29T15:35:49;4.85;;;1.10;;
68212;SDS011;55035;47.792;8.724;2022-12-29T15:38:19;4.75;;;1.00;;
68212;SDS011;55035;47.792;8.724;2022-12-29T15:40:50;5.00;;;1.15;;